sensor_id;sensor_type;location;lat;lon;timestamp;P1;durP1;ratioP1;P2;durP2;ratioP2
68449;SDS011;67758;39.572;2.652;2024-01-30T00:00:08;23.37;;;3.90;;
68449;SDS011;67758;39.572;2.652;2024-01-30T00:02:34;21.25;;;4.07;;
68449;SDS011;67758;39.572;2.652;2024-01-30T00:05:00;21.40;;;3.83;;
68449;SDS011;67758;39.572;2.652;2024-01-30T00:07:25;17.77;;;3.60;;
68449;SDS011;67758;39.572;2.652;2024-01-30T00:09:51;17.97;;;4.27;;
68449;SDS011;67758;39.572;2.652;2024-01-30T00:12:17;21.90;;;3.67;;
68449;SDS011;67758;39.572;2.652;2024-01-30T00:14:42;23.63;;;3.70;;
68449;SDS011;67758;39.572;2.652;2024-01-30T00:17:10;18.35;;;3.88;;
68449;SDS011;67758;39.572;2.652;2024-01-30T00:19:36;19.93;;;3.87;;
68449;SDS011;67758;39.572;2.652;2024-01-30T00:22:02;21.23;;;4.17;;
68449;SDS011;67758;39.572;2.652;2024-01-30T00:24:27;18.83;;;3.80;;
68449;SDS011;67758;39.572;2.652;2024-01-30T00:26:53;14.33;;;2.87;;
68449;SDS011;67758;39.572;2.652;2024-01-30T00:29:18;13.90;;;3.13;;
68449;SDS011;67758;39.572;2.652;2024-01-30T00:31:45;17.20;;;3.37;;
68449;SDS011;67758;39.572;2.652;2024-01-30T00:34:11;16.50;;;3.30;;
68449;SDS011;67758;39.572;2.652;2024-01-30T00:36:39;15.52;;;3.90;;
68449;SDS011;67758;39.572;2.652;2024-01-30T00:39:05;20.00;;;4.00;;
68449;SDS011;67758;39.572;2.652;2024-01-30T00:41:33;16.80;;;3.38;;
68449;SDS011;67758;39.572;2.652;2024-01-30T00:43:59;19.10;;;3.20;;
68449;SDS011;67758;39.572;2.652;2024-01-30T00:46:24;14.40;;;3.13;;
68449;SDS011;67758;39.572;2.652;2024-01-30T00:48:50;17.57;;;3.20;;
68449;SDS011;67758;39.572;2.652;2024-01-30T00:51:15;19.77;;;3.47;;
68449;SDS011;67758;39.572;2.652;2024-01-30T00:53:43;18.27;;;3.00;;
68449;SDS011;67758;39.572;2.652;2024-01-30T00:56:10;11.00;;;2.50;;
68449;SDS011;67758;39.572;2.652;2024-01-30T00:58:36;11.23;;;2.33;;
68449;SDS011;67758;39.572;2.652;2024-01-30T01:01:01;19.40;;;3.10;;
68449;SDS011;67758;39.572;2.652;2024-01-30T01:03:27;11.60;;;2.30;;
68449;SDS011;67758;39.572;2.652;2024-01-30T01:05:53;13.93;;;2.22;;
68449;SDS011;67758;39.572;2.652;2024-01-30T01:08:18;13.03;;;2.27;;
68449;SDS011;67758;39.572;2.652;2024-01-30T01:10:45;12.55;;;2.25;;
68449;SDS011;67758;39.572;2.652;2024-01-30T01:13:10;15.50;;;2.10;;
68449;SDS011;67758;39.572;2.652;2024-01-30T01:15:36;13.90;;;2.22;;
68449;SDS011;67758;39.572;2.652;2024-01-30T01:18:02;15.88;;;2.30;;
68449;SDS011;67758;39.572;2.652;2024-01-30T01:20:28;15.88;;;2.78;;
68449;SDS011;67758;39.572;2.652;2024-01-30T01:22:53;13.68;;;2.42;;
68449;SDS011;67758;39.572;2.652;2024-01-30T01:25:19;12.60;;;1.77;;
68449;SDS011;67758;39.572;2.652;2024-01-30T01:27:45;13.13;;;2.28;;
68449;SDS011;67758;39.572;2.652;2024-01-30T01:30:16;14.03;;;1.93;;
68449;SDS011;67758;39.572;2.652;2024-01-30T01:32:47;12.90;;;2.08;;
68449;SDS011;67758;39.572;2.652;2024-01-30T01:35:23;12.48;;;2.05;;
68449;SDS011;67758;39.572;2.652;2024-01-30T01:37:53;14.88;;;2.50;;
68449;SDS011;67758;39.572;2.652;2024-01-30T01:40:24;9.88;;;1.70;;
68449;SDS011;67758;39.572;2.652;2024-01-30T01:42:51;10.10;;;1.70;;
68449;SDS011;67758;39.572;2.652;2024-01-30T01:45:17;15.38;;;2.20;;
68449;SDS011;67758;39.572;2.652;2024-01-30T01:47:44;17.90;;;2.78;;
68449;SDS011;67758;39.572;2.652;2024-01-30T01:50:12;15.27;;;2.10;;
68449;SDS011;67758;39.572;2.652;2024-01-30T01:52:40;12.65;;;1.63;;
68449;SDS011;67758;39.572;2.652;2024-01-30T01:55:06;14.33;;;2.00;;
68449;SDS011;67758;39.572;2.652;2024-01-30T01:57:33;12.45;;;2.03;;
68449;SDS011;67758;39.572;2.652;2024-01-30T01:59:59;11.68;;;1.98;;
68449;SDS011;67758;39.572;2.652;2024-01-30T02:02:27;13.43;;;2.25;;
68449;SDS011;67758;39.572;2.652;2024-01-30T02:04:59;16.00;;;1.95;;
68449;SDS011;67758;39.572;2.652;2024-01-30T02:07:25;15.30;;;1.77;;
68449;SDS011;67758;39.572;2.652;2024-01-30T02:09:52;8.70;;;2.08;;
68449;SDS011;67758;39.572;2.652;2024-01-30T02:12:18;16.98;;;1.98;;
68449;SDS011;67758;39.572;2.652;2024-01-30T02:14:44;14.65;;;2.10;;
68449;SDS011;67758;39.572;2.652;2024-01-30T02:17:11;15.50;;;2.20;;
68449;SDS011;67758;39.572;2.652;2024-01-30T02:19:37;15.00;;;2.05;;
68449;SDS011;67758;39.572;2.652;2024-01-30T02:22:04;22.13;;;1.90;;
68449;SDS011;67758;39.572;2.652;2024-01-30T02:24:29;14.75;;;2.63;;
68449;SDS011;67758;39.572;2.652;2024-01-30T02:26:55;16.03;;;2.40;;
68449;SDS011;67758;39.572;2.652;2024-01-30T02:29:21;19.67;;;2.33;;
68449;SDS011;67758;39.572;2.652;2024-01-30T02:31:46;13.97;;;2.20;;
68449;SDS011;67758;39.572;2.652;2024-01-30T02:34:12;10.02;;;1.85;;
68449;SDS011;67758;39.572;2.652;2024-01-30T02:36:38;14.32;;;1.85;;
68449;SDS011;67758;39.572;2.652;2024-01-30T02:39:07;13.37;;;1.97;;
68449;SDS011;67758;39.572;2.652;2024-01-30T02:41:33;16.27;;;2.17;;
68449;SDS011;67758;39.572;2.652;2024-01-30T02:43:59;17.70;;;2.23;;
68449;SDS011;67758;39.572;2.652;2024-01-30T02:46:24;15.50;;;2.08;;
68449;SDS011;67758;39.572;2.652;2024-01-30T02:48:50;18.67;;;2.30;;
68449;SDS011;67758;39.572;2.652;2024-01-30T02:51:16;14.73;;;1.77;;
68449;SDS011;67758;39.572;2.652;2024-01-30T02:53:41;10.43;;;2.17;;
68449;SDS011;67758;39.572;2.652;2024-01-30T02:56:07;12.80;;;1.80;;
68449;SDS011;67758;39.572;2.652;2024-01-30T02:58:37;16.63;;;2.53;;
68449;SDS011;67758;39.572;2.652;2024-01-30T03:01:04;11.05;;;1.92;;
68449;SDS011;67758;39.572;2.652;2024-01-30T03:03:29;16.97;;;1.90;;
68449;SDS011;67758;39.572;2.652;2024-01-30T03:05:56;12.03;;;1.70;;
68449;SDS011;67758;39.572;2.652;2024-01-30T03:08:22;13.40;;;2.08;;
68449;SDS011;67758;39.572;2.652;2024-01-30T03:10:49;13.67;;;2.17;;
68449;SDS011;67758;39.572;2.652;2024-01-30T03:13:14;13.93;;;2.13;;
68449;SDS011;67758;39.572;2.652;2024-01-30T03:15:40;12.25;;;2.00;;
68449;SDS011;67758;39.572;2.652;2024-01-30T03:18:05;15.23;;;2.20;;
68449;SDS011;67758;39.572;2.652;2024-01-30T03:20:31;16.67;;;2.23;;
68449;SDS011;67758;39.572;2.652;2024-01-30T03:22:57;13.07;;;1.95;;
68449;SDS011;67758;39.572;2.652;2024-01-30T03:25:24;15.05;;;1.90;;
68449;SDS011;67758;39.572;2.652;2024-01-30T03:27:50;15.90;;;2.00;;
68449;SDS011;67758;39.572;2.652;2024-01-30T03:30:16;18.10;;;1.90;;
68449;SDS011;67758;39.572;2.652;2024-01-30T03:32:42;11.30;;;2.08;;
68449;SDS011;67758;39.572;2.652;2024-01-30T03:35:09;14.98;;;2.20;;
68449;SDS011;67758;39.572;2.652;2024-01-30T03:37:35;14.40;;;2.00;;
68449;SDS011;67758;39.572;2.652;2024-01-30T03:40:01;14.77;;;1.90;;
68449;SDS011;67758;39.572;2.652;2024-01-30T03:42:27;10.80;;;1.52;;
68449;SDS011;67758;39.572;2.652;2024-01-30T03:44:53;9.73;;;1.40;;
68449;SDS011;67758;39.572;2.652;2024-01-30T03:47:20;14.20;;;1.90;;
68449;SDS011;67758;39.572;2.652;2024-01-30T03:49:46;12.20;;;1.80;;
68449;SDS011;67758;39.572;2.652;2024-01-30T03:52:12;10.48;;;1.92;;
68449;SDS011;67758;39.572;2.652;2024-01-30T03:54:38;13.23;;;1.52;;
68449;SDS011;67758;39.572;2.652;2024-01-30T03:57:03;16.65;;;2.13;;
68449;SDS011;67758;39.572;2.652;2024-01-30T03:59:29;10.73;;;1.70;;
68449;SDS011;67758;39.572;2.652;2024-01-30T04:01:54;11.00;;;1.70;;
68449;SDS011;67758;39.572;2.652;2024-01-30T04:04:20;14.13;;;1.90;;
68449;SDS011;67758;39.572;2.652;2024-01-30T04:06:46;15.07;;;2.40;;
68449;SDS011;67758;39.572;2.652;2024-01-30T04:09:14;11.75;;;1.80;;
68449;SDS011;67758;39.572;2.652;2024-01-30T04:11:40;16.70;;;1.55;;
68449;SDS011;67758;39.572;2.652;2024-01-30T04:14:10;12.98;;;1.77;;
68449;SDS011;67758;39.572;2.652;2024-01-30T04:16:36;17.70;;;1.73;;
68449;SDS011;67758;39.572;2.652;2024-01-30T04:19:01;15.40;;;1.90;;
68449;SDS011;67758;39.572;2.652;2024-01-30T04:21:27;9.67;;;1.53;;
68449;SDS011;67758;39.572;2.652;2024-01-30T04:23:52;10.20;;;2.10;;
68449;SDS011;67758;39.572;2.652;2024-01-30T04:26:18;15.97;;;1.80;;
68449;SDS011;67758;39.572;2.652;2024-01-30T04:28:44;18.00;;;1.67;;
68449;SDS011;67758;39.572;2.652;2024-01-30T04:31:11;11.88;;;1.88;;
68449;SDS011;67758;39.572;2.652;2024-01-30T04:33:36;12.10;;;1.80;;
68449;SDS011;67758;39.572;2.652;2024-01-30T04:36:02;10.33;;;1.70;;
68449;SDS011;67758;39.572;2.652;2024-01-30T04:38:28;13.13;;;1.60;;
68449;SDS011;67758;39.572;2.652;2024-01-30T04:40:54;15.47;;;1.93;;
68449;SDS011;67758;39.572;2.652;2024-01-30T04:43:20;13.13;;;2.00;;
68449;SDS011;67758;39.572;2.652;2024-01-30T04:45:46;15.27;;;2.33;;
68449;SDS011;67758;39.572;2.652;2024-01-30T04:48:12;14.70;;;2.07;;
68449;SDS011;67758;39.572;2.652;2024-01-30T04:50:38;12.02;;;1.60;;
68449;SDS011;67758;39.572;2.652;2024-01-30T04:53:03;14.00;;;1.40;;
68449;SDS011;67758;39.572;2.652;2024-01-30T04:55:29;17.52;;;1.98;;
68449;SDS011;67758;39.572;2.652;2024-01-30T04:57:54;12.70;;;2.20;;
68449;SDS011;67758;39.572;2.652;2024-01-30T05:00:20;11.27;;;1.33;;
68449;SDS011;67758;39.572;2.652;2024-01-30T05:02:45;12.13;;;1.60;;
68449;SDS011;67758;39.572;2.652;2024-01-30T05:05:11;19.08;;;3.35;;
68449;SDS011;67758;39.572;2.652;2024-01-30T05:07:38;13.73;;;1.57;;
68449;SDS011;67758;39.572;2.652;2024-01-30T05:10:06;12.45;;;1.80;;
68449;SDS011;67758;39.572;2.652;2024-01-30T05:12:32;16.73;;;3.53;;
68449;SDS011;67758;39.572;2.652;2024-01-30T05:14:57;14.18;;;1.70;;
68449;SDS011;67758;39.572;2.652;2024-01-30T05:17:23;13.77;;;2.00;;
68449;SDS011;67758;39.572;2.652;2024-01-30T05:19:48;11.63;;;2.10;;
68449;SDS011;67758;39.572;2.652;2024-01-30T05:22:14;15.52;;;2.55;;
68449;SDS011;67758;39.572;2.652;2024-01-30T05:24:41;12.07;;;1.80;;
68449;SDS011;67758;39.572;2.652;2024-01-30T05:27:07;16.38;;;2.30;;
68449;SDS011;67758;39.572;2.652;2024-01-30T05:29:33;12.67;;;2.10;;
68449;SDS011;67758;39.572;2.652;2024-01-30T05:31:59;16.10;;;2.13;;
68449;SDS011;67758;39.572;2.652;2024-01-30T05:34:24;17.13;;;2.00;;
68449;SDS011;67758;39.572;2.652;2024-01-30T05:36:50;17.77;;;2.30;;
68449;SDS011;67758;39.572;2.652;2024-01-30T05:39:16;15.52;;;2.30;;
68449;SDS011;67758;39.572;2.652;2024-01-30T05:41:41;13.37;;;1.80;;
68449;SDS011;67758;39.572;2.652;2024-01-30T05:44:07;14.60;;;2.10;;
68449;SDS011;67758;39.572;2.652;2024-01-30T05:46:33;14.50;;;2.03;;
68449;SDS011;67758;39.572;2.652;2024-01-30T05:48:58;11.88;;;2.22;;
68449;SDS011;67758;39.572;2.652;2024-01-30T05:51:24;15.83;;;2.57;;
68449;SDS011;67758;39.572;2.652;2024-01-30T05:53:50;16.20;;;2.55;;
68449;SDS011;67758;39.572;2.652;2024-01-30T05:56:15;13.57;;;2.10;;
68449;SDS011;67758;39.572;2.652;2024-01-30T05:58:41;15.00;;;2.25;;
68449;SDS011;67758;39.572;2.652;2024-01-30T06:01:08;11.63;;;2.10;;
68449;SDS011;67758;39.572;2.652;2024-01-30T06:03:34;11.73;;;2.53;;
68449;SDS011;67758;39.572;2.652;2024-01-30T06:06:00;11.32;;;1.63;;
68449;SDS011;67758;39.572;2.652;2024-01-30T06:08:26;12.52;;;1.90;;
68449;SDS011;67758;39.572;2.652;2024-01-30T06:10:51;12.43;;;2.13;;
68449;SDS011;67758;39.572;2.652;2024-01-30T06:13:17;13.85;;;1.90;;
68449;SDS011;67758;39.572;2.652;2024-01-30T06:15:43;12.73;;;2.17;;
68449;SDS011;67758;39.572;2.652;2024-01-30T06:18:08;15.90;;;2.60;;
68449;SDS011;67758;39.572;2.652;2024-01-30T06:20:34;15.98;;;2.05;;
68449;SDS011;67758;39.572;2.652;2024-01-30T06:23:00;12.97;;;2.63;;
68449;SDS011;67758;39.572;2.652;2024-01-30T06:25:25;11.73;;;2.30;;
68449;SDS011;67758;39.572;2.652;2024-01-30T06:27:51;13.67;;;2.93;;
68449;SDS011;67758;39.572;2.652;2024-01-30T06:30:17;11.77;;;2.15;;
68449;SDS011;67758;39.572;2.652;2024-01-30T06:32:43;20.52;;;2.47;;
68449;SDS011;67758;39.572;2.652;2024-01-30T06:35:09;13.90;;;2.45;;
68449;SDS011;67758;39.572;2.652;2024-01-30T06:37:37;15.10;;;2.15;;
68449;SDS011;67758;39.572;2.652;2024-01-30T06:40:03;12.47;;;2.40;;
68449;SDS011;67758;39.572;2.652;2024-01-30T06:42:30;14.82;;;1.92;;
68449;SDS011;67758;39.572;2.652;2024-01-30T06:44:56;12.27;;;2.00;;
68449;SDS011;67758;39.572;2.652;2024-01-30T06:47:21;11.73;;;1.73;;
68449;SDS011;67758;39.572;2.652;2024-01-30T06:49:47;11.10;;;1.87;;
68449;SDS011;67758;39.572;2.652;2024-01-30T06:52:12;18.50;;;2.03;;
68449;SDS011;67758;39.572;2.652;2024-01-30T06:54:39;18.23;;;2.40;;
68449;SDS011;67758;39.572;2.652;2024-01-30T06:57:04;17.55;;;2.80;;
68449;SDS011;67758;39.572;2.652;2024-01-30T06:59:34;14.45;;;2.03;;
68449;SDS011;67758;39.572;2.652;2024-01-30T07:02:00;18.63;;;3.00;;
68449;SDS011;67758;39.572;2.652;2024-01-30T07:04:25;12.07;;;1.90;;
68449;SDS011;67758;39.572;2.652;2024-01-30T07:06:51;16.83;;;2.03;;
68449;SDS011;67758;39.572;2.652;2024-01-30T07:09:18;16.63;;;2.95;;
68449;SDS011;67758;39.572;2.652;2024-01-30T07:11:44;17.70;;;2.22;;
68449;SDS011;67758;39.572;2.652;2024-01-30T07:14:10;10.80;;;2.17;;
68449;SDS011;67758;39.572;2.652;2024-01-30T07:16:35;14.70;;;2.50;;
68449;SDS011;67758;39.572;2.652;2024-01-30T07:19:01;19.90;;;2.57;;
68449;SDS011;67758;39.572;2.652;2024-01-30T07:21:27;15.23;;;2.08;;
68449;SDS011;67758;39.572;2.652;2024-01-30T07:23:54;9.35;;;1.75;;
68449;SDS011;67758;39.572;2.652;2024-01-30T07:26:20;14.52;;;2.42;;
68449;SDS011;67758;39.572;2.652;2024-01-30T07:28:46;13.17;;;2.07;;
68449;SDS011;67758;39.572;2.652;2024-01-30T07:31:11;16.60;;;2.60;;
68449;SDS011;67758;39.572;2.652;2024-01-30T07:33:37;16.08;;;3.10;;
68449;SDS011;67758;39.572;2.652;2024-01-30T07:36:02;16.70;;;2.30;;
68449;SDS011;67758;39.572;2.652;2024-01-30T07:38:28;17.40;;;2.70;;
68449;SDS011;67758;39.572;2.652;2024-01-30T07:40:56;16.20;;;2.72;;
68449;SDS011;67758;39.572;2.652;2024-01-30T07:43:22;15.88;;;2.28;;
68449;SDS011;67758;39.572;2.652;2024-01-30T07:45:48;18.80;;;2.73;;
68449;SDS011;67758;39.572;2.652;2024-01-30T07:48:13;20.30;;;2.78;;
68449;SDS011;67758;39.572;2.652;2024-01-30T07:50:39;14.30;;;2.70;;
68449;SDS011;67758;39.572;2.652;2024-01-30T07:53:04;15.90;;;3.07;;
68449;SDS011;67758;39.572;2.652;2024-01-30T07:55:30;19.45;;;2.47;;
68449;SDS011;67758;39.572;2.652;2024-01-30T07:57:57;21.48;;;2.85;;
68449;SDS011;67758;39.572;2.652;2024-01-30T08:00:24;23.55;;;3.22;;
68449;SDS011;67758;39.572;2.652;2024-01-30T08:02:53;11.23;;;2.17;;
68449;SDS011;67758;39.572;2.652;2024-01-30T08:05:20;16.70;;;2.95;;
68449;SDS011;67758;39.572;2.652;2024-01-30T08:07:47;19.05;;;3.20;;
68449;SDS011;67758;39.572;2.652;2024-01-30T08:10:14;13.27;;;2.45;;
68449;SDS011;67758;39.572;2.652;2024-01-30T08:12:40;21.80;;;2.63;;
68449;SDS011;67758;39.572;2.652;2024-01-30T08:15:05;13.50;;;2.50;;
68449;SDS011;67758;39.572;2.652;2024-01-30T08:17:31;19.98;;;2.65;;
68449;SDS011;67758;39.572;2.652;2024-01-30T08:19:57;21.03;;;2.20;;
68449;SDS011;67758;39.572;2.652;2024-01-30T08:22:22;18.50;;;3.13;;
68449;SDS011;67758;39.572;2.652;2024-01-30T08:24:48;18.00;;;2.80;;
68449;SDS011;67758;39.572;2.652;2024-01-30T08:27:14;12.90;;;2.43;;
68449;SDS011;67758;39.572;2.652;2024-01-30T08:29:39;18.65;;;3.30;;
68449;SDS011;67758;39.572;2.652;2024-01-30T08:32:05;23.30;;;3.30;;
68449;SDS011;67758;39.572;2.652;2024-01-30T08:34:31;20.15;;;3.22;;
68449;SDS011;67758;39.572;2.652;2024-01-30T08:36:57;19.08;;;3.20;;
68449;SDS011;67758;39.572;2.652;2024-01-30T08:39:23;15.43;;;2.70;;
68449;SDS011;67758;39.572;2.652;2024-01-30T08:41:48;21.17;;;3.43;;
68449;SDS011;67758;39.572;2.652;2024-01-30T08:44:14;18.33;;;2.92;;
68449;SDS011;67758;39.572;2.652;2024-01-30T08:46:40;24.07;;;3.77;;
68449;SDS011;67758;39.572;2.652;2024-01-30T08:49:05;14.55;;;3.00;;
68449;SDS011;67758;39.572;2.652;2024-01-30T08:51:31;14.50;;;3.60;;
68449;SDS011;67758;39.572;2.652;2024-01-30T08:53:56;23.70;;;4.60;;
68449;SDS011;67758;39.572;2.652;2024-01-30T08:56:22;17.90;;;4.30;;
68449;SDS011;67758;39.572;2.652;2024-01-30T08:58:47;20.33;;;4.47;;
68449;SDS011;67758;39.572;2.652;2024-01-30T09:01:13;24.73;;;5.00;;
68449;SDS011;67758;39.572;2.652;2024-01-30T09:03:39;20.53;;;5.47;;
68449;SDS011;67758;39.572;2.652;2024-01-30T09:06:09;21.60;;;5.55;;
68449;SDS011;67758;39.572;2.652;2024-01-30T09:08:35;22.08;;;5.10;;
68449;SDS011;67758;39.572;2.652;2024-01-30T09:11:01;20.02;;;5.03;;
68449;SDS011;67758;39.572;2.652;2024-01-30T09:13:34;25.05;;;6.03;;
68449;SDS011;67758;39.572;2.652;2024-01-30T09:15:59;24.80;;;6.30;;
68449;SDS011;67758;39.572;2.652;2024-01-30T09:18:25;22.57;;;5.47;;
68449;SDS011;67758;39.572;2.652;2024-01-30T09:20:50;20.00;;;5.07;;
68449;SDS011;67758;39.572;2.652;2024-01-30T09:23:16;17.40;;;4.63;;
68449;SDS011;67758;39.572;2.652;2024-01-30T09:25:43;23.50;;;4.50;;
68449;SDS011;67758;39.572;2.652;2024-01-30T09:28:09;19.73;;;4.67;;
68449;SDS011;67758;39.572;2.652;2024-01-30T09:30:35;18.60;;;3.10;;
68449;SDS011;67758;39.572;2.652;2024-01-30T09:33:00;19.42;;;4.35;;
68449;SDS011;67758;39.572;2.652;2024-01-30T09:35:26;19.63;;;3.40;;
68449;SDS011;67758;39.572;2.652;2024-01-30T09:37:51;18.48;;;3.28;;
68449;SDS011;67758;39.572;2.652;2024-01-30T09:40:18;19.63;;;4.30;;
68449;SDS011;67758;39.572;2.652;2024-01-30T09:42:46;15.95;;;3.58;;
68449;SDS011;67758;39.572;2.652;2024-01-30T09:45:15;16.17;;;4.40;;
68449;SDS011;67758;39.572;2.652;2024-01-30T09:47:43;20.10;;;2.92;;
68449;SDS011;67758;39.572;2.652;2024-01-30T09:50:10;25.40;;;4.45;;
68449;SDS011;67758;39.572;2.652;2024-01-30T09:52:37;13.07;;;2.60;;
68449;SDS011;67758;39.572;2.652;2024-01-30T09:55:03;16.30;;;3.10;;
68449;SDS011;67758;39.572;2.652;2024-01-30T09:57:29;19.75;;;3.22;;
68449;SDS011;67758;39.572;2.652;2024-01-30T09:59:55;18.67;;;2.93;;
68449;SDS011;67758;39.572;2.652;2024-01-30T10:02:22;14.60;;;2.33;;
68449;SDS011;67758;39.572;2.652;2024-01-30T10:04:48;15.63;;;2.38;;
68449;SDS011;67758;39.572;2.652;2024-01-30T10:07:18;10.70;;;1.90;;
68449;SDS011;67758;39.572;2.652;2024-01-30T10:09:44;15.50;;;2.08;;
68449;SDS011;67758;39.572;2.652;2024-01-30T10:12:10;10.55;;;1.77;;
68449;SDS011;67758;39.572;2.652;2024-01-30T10:14:39;11.85;;;2.45;;
68449;SDS011;67758;39.572;2.652;2024-01-30T10:17:07;14.50;;;1.83;;
68449;SDS011;67758;39.572;2.652;2024-01-30T10:19:33;17.13;;;2.10;;
68449;SDS011;67758;39.572;2.652;2024-01-30T10:21:59;13.67;;;2.37;;
68449;SDS011;67758;39.572;2.652;2024-01-30T10:24:26;12.65;;;1.92;;
68449;SDS011;67758;39.572;2.652;2024-01-30T10:26:52;13.98;;;2.85;;
68449;SDS011;67758;39.572;2.652;2024-01-30T10:29:18;13.15;;;2.03;;
68449;SDS011;67758;39.572;2.652;2024-01-30T10:31:44;13.77;;;2.00;;
68449;SDS011;67758;39.572;2.652;2024-01-30T10:34:10;22.75;;;2.35;;
68449;SDS011;67758;39.572;2.652;2024-01-30T10:36:39;21.10;;;2.38;;
68449;SDS011;67758;39.572;2.652;2024-01-30T10:39:08;15.45;;;2.38;;
68449;SDS011;67758;39.572;2.652;2024-01-30T10:41:41;16.25;;;2.10;;
68449;SDS011;67758;39.572;2.652;2024-01-30T10:44:10;10.47;;;1.60;;
68449;SDS011;67758;39.572;2.652;2024-01-30T10:46:37;12.93;;;2.28;;
68449;SDS011;67758;39.572;2.652;2024-01-30T10:49:04;12.27;;;2.05;;
68449;SDS011;67758;39.572;2.652;2024-01-30T10:51:30;18.73;;;2.53;;
68449;SDS011;67758;39.572;2.652;2024-01-30T10:53:57;16.27;;;2.40;;
68449;SDS011;67758;39.572;2.652;2024-01-30T10:56:23;19.90;;;2.90;;
68449;SDS011;67758;39.572;2.652;2024-01-30T10:58:53;14.32;;;2.40;;
68449;SDS011;67758;39.572;2.652;2024-01-30T11:01:20;17.85;;;3.15;;
68449;SDS011;67758;39.572;2.652;2024-01-30T11:03:51;17.98;;;2.67;;
68449;SDS011;67758;39.572;2.652;2024-01-30T11:06:17;17.90;;;2.77;;
68449;SDS011;67758;39.572;2.652;2024-01-30T11:08:44;12.88;;;2.50;;
68449;SDS011;67758;39.572;2.652;2024-01-30T11:11:25;12.95;;;2.80;;
68449;SDS011;67758;39.572;2.652;2024-01-30T11:13:50;19.60;;;3.17;;
68449;SDS011;67758;39.572;2.652;2024-01-30T11:16:17;14.02;;;2.97;;
68449;SDS011;67758;39.572;2.652;2024-01-30T11:18:42;17.87;;;3.20;;
68449;SDS011;67758;39.572;2.652;2024-01-30T11:21:08;17.10;;;2.95;;
68449;SDS011;67758;39.572;2.652;2024-01-30T11:23:33;15.50;;;3.37;;
68449;SDS011;67758;39.572;2.652;2024-01-30T11:26:01;18.33;;;3.83;;
68449;SDS011;67758;39.572;2.652;2024-01-30T11:28:31;14.45;;;3.22;;
68449;SDS011;67758;39.572;2.652;2024-01-30T11:31:07;13.95;;;3.25;;
68449;SDS011;67758;39.572;2.652;2024-01-30T11:33:33;9.68;;;2.38;;
68449;SDS011;67758;39.572;2.652;2024-01-30T11:35:59;15.15;;;2.60;;
68449;SDS011;67758;39.572;2.652;2024-01-30T11:38:26;15.48;;;3.10;;
68449;SDS011;67758;39.572;2.652;2024-01-30T11:40:54;11.77;;;2.95;;
68449;SDS011;67758;39.572;2.652;2024-01-30T11:43:21;13.70;;;2.83;;
68449;SDS011;67758;39.572;2.652;2024-01-30T11:45:49;13.18;;;2.60;;
68449;SDS011;67758;39.572;2.652;2024-01-30T11:48:17;15.05;;;3.00;;
68449;SDS011;67758;39.572;2.652;2024-01-30T11:50:43;15.55;;;3.58;;
68449;SDS011;67758;39.572;2.652;2024-01-30T11:53:12;14.70;;;2.88;;
68449;SDS011;67758;39.572;2.652;2024-01-30T11:55:37;18.23;;;2.87;;
68449;SDS011;67758;39.572;2.652;2024-01-30T11:58:03;12.27;;;3.30;;
68449;SDS011;67758;39.572;2.652;2024-01-30T12:00:29;13.57;;;3.03;;
68449;SDS011;67758;39.572;2.652;2024-01-30T12:02:58;19.92;;;2.97;;
68449;SDS011;67758;39.572;2.652;2024-01-30T12:05:26;14.20;;;2.72;;
68449;SDS011;67758;39.572;2.652;2024-01-30T12:07:53;10.25;;;2.50;;
68449;SDS011;67758;39.572;2.652;2024-01-30T12:10:19;11.80;;;3.00;;
68449;SDS011;67758;39.572;2.652;2024-01-30T12:12:54;16.55;;;3.97;;
68449;SDS011;67758;39.572;2.652;2024-01-30T12:15:23;21.08;;;4.68;;
68449;SDS011;67758;39.572;2.652;2024-01-30T12:17:50;15.27;;;3.20;;
68449;SDS011;67758;39.572;2.652;2024-01-30T12:20:19;14.85;;;3.50;;
68449;SDS011;67758;39.572;2.652;2024-01-30T12:22:47;15.25;;;2.65;;
68449;SDS011;67758;39.572;2.652;2024-01-30T12:25:14;12.85;;;3.05;;
68449;SDS011;67758;39.572;2.652;2024-01-30T12:27:44;14.40;;;4.10;;
68449;SDS011;67758;39.572;2.652;2024-01-30T12:30:12;14.93;;;4.88;;
68449;SDS011;67758;39.572;2.652;2024-01-30T12:32:42;20.77;;;3.05;;
68449;SDS011;67758;39.572;2.652;2024-01-30T12:35:12;20.85;;;3.97;;
68449;SDS011;67758;39.572;2.652;2024-01-30T12:37:39;16.85;;;4.07;;
68449;SDS011;67758;39.572;2.652;2024-01-30T12:40:06;14.25;;;3.38;;
68449;SDS011;67758;39.572;2.652;2024-01-30T12:42:33;14.82;;;4.05;;
68449;SDS011;67758;39.572;2.652;2024-01-30T12:44:59;15.85;;;4.80;;
68449;SDS011;67758;39.572;2.652;2024-01-30T12:47:24;17.25;;;6.03;;
68449;SDS011;67758;39.572;2.652;2024-01-30T12:49:50;11.15;;;3.28;;
68449;SDS011;67758;39.572;2.652;2024-01-30T12:52:19;15.50;;;5.00;;
68449;SDS011;67758;39.572;2.652;2024-01-30T12:54:49;13.75;;;3.17;;
68449;SDS011;67758;39.572;2.652;2024-01-30T12:57:15;16.07;;;4.00;;
68449;SDS011;67758;39.572;2.652;2024-01-30T12:59:41;15.20;;;3.45;;
68449;SDS011;67758;39.572;2.652;2024-01-30T13:02:09;16.60;;;5.68;;
68449;SDS011;67758;39.572;2.652;2024-01-30T13:04:35;14.13;;;3.30;;
68449;SDS011;67758;39.572;2.652;2024-01-30T13:07:01;17.13;;;5.18;;
68449;SDS011;67758;39.572;2.652;2024-01-30T13:09:29;12.93;;;2.83;;
68449;SDS011;67758;39.572;2.652;2024-01-30T13:11:55;14.25;;;3.83;;
68449;SDS011;67758;39.572;2.652;2024-01-30T13:14:20;17.27;;;4.03;;
68449;SDS011;67758;39.572;2.652;2024-01-30T13:16:46;18.08;;;3.33;;
68449;SDS011;67758;39.572;2.652;2024-01-30T13:19:11;33.77;;;4.17;;
68449;SDS011;67758;39.572;2.652;2024-01-30T13:21:37;30.42;;;10.77;;
68449;SDS011;67758;39.572;2.652;2024-01-30T13:24:03;14.67;;;3.70;;
68449;SDS011;67758;39.572;2.652;2024-01-30T13:26:31;13.88;;;3.03;;
68449;SDS011;67758;39.572;2.652;2024-01-30T13:28:57;14.57;;;3.45;;
68449;SDS011;67758;39.572;2.652;2024-01-30T13:31:23;15.17;;;3.97;;
68449;SDS011;67758;39.572;2.652;2024-01-30T13:33:49;14.98;;;3.78;;
68449;SDS011;67758;39.572;2.652;2024-01-30T13:36:14;12.57;;;3.20;;
68449;SDS011;67758;39.572;2.652;2024-01-30T13:38:40;13.63;;;3.60;;
68449;SDS011;67758;39.572;2.652;2024-01-30T13:41:07;12.40;;;3.10;;
68449;SDS011;67758;39.572;2.652;2024-01-30T13:43:33;13.88;;;3.20;;
68449;SDS011;67758;39.572;2.652;2024-01-30T13:45:58;15.37;;;2.83;;
68449;SDS011;67758;39.572;2.652;2024-01-30T13:48:24;12.95;;;2.13;;
68449;SDS011;67758;39.572;2.652;2024-01-30T13:50:50;15.93;;;2.37;;
68449;SDS011;67758;39.572;2.652;2024-01-30T13:53:16;9.93;;;1.92;;
68449;SDS011;67758;39.572;2.652;2024-01-30T13:55:41;12.40;;;1.70;;
68449;SDS011;67758;39.572;2.652;2024-01-30T13:58:07;13.25;;;2.67;;
68449;SDS011;67758;39.572;2.652;2024-01-30T14:00:33;11.30;;;1.88;;
68449;SDS011;67758;39.572;2.652;2024-01-30T14:02:59;9.15;;;1.75;;
68449;SDS011;67758;39.572;2.652;2024-01-30T14:05:25;11.45;;;2.22;;
68449;SDS011;67758;39.572;2.652;2024-01-30T14:07:52;11.73;;;1.83;;
68449;SDS011;67758;39.572;2.652;2024-01-30T14:10:18;13.18;;;1.55;;
68449;SDS011;67758;39.572;2.652;2024-01-30T14:12:44;13.82;;;2.08;;
68449;SDS011;67758;39.572;2.652;2024-01-30T14:15:10;15.63;;;1.90;;
68449;SDS011;67758;39.572;2.652;2024-01-30T14:17:37;11.68;;;1.65;;
68449;SDS011;67758;39.572;2.652;2024-01-30T14:20:03;12.43;;;1.60;;
68449;SDS011;67758;39.572;2.652;2024-01-30T14:22:30;10.30;;;1.90;;
68449;SDS011;67758;39.572;2.652;2024-01-30T14:24:56;10.85;;;1.40;;
68449;SDS011;67758;39.572;2.652;2024-01-30T14:27:22;13.10;;;1.88;;
68449;SDS011;67758;39.572;2.652;2024-01-30T14:29:47;10.43;;;1.50;;